createdAt,value
2022-07-30T00:00:32.361Z,4.93
2022-07-30T00:15:37.441Z,5.80
2022-07-30T00:23:07.223Z,6.10
2022-07-30T00:30:38.207Z,5.23
2022-07-30T00:33:04.826Z,5.73
2022-07-30T00:35:35.148Z,6.27
2022-07-30T00:38:01.858Z,5.53
2022-07-30T00:40:28.975Z,5.73
2022-07-30T00:45:27.692Z,6.47
2022-07-30T00:48:01.321Z,6.83
2022-07-30T00:50:28.023Z,5.83
2022-07-30T00:55:26.259Z,5.30
2022-07-30T01:02:56.049Z,7.13
2022-07-30T01:10:26.383Z,7.00
2022-07-30T01:15:26.270Z,6.40
2022-07-30T01:17:56.565Z,6.53
2022-07-30T01:26:10.719Z,6.07
2022-07-30T01:28:40.774Z,6.50
2022-07-30T01:31:09.100Z,6.63
2022-07-30T01:33:40.315Z,6.67
2022-07-30T01:36:10.567Z,7.07
2022-07-30T01:38:37.762Z,7.00
2022-07-30T01:41:06.279Z,6.37
2022-07-30T01:46:08.742Z,7.07
2022-07-30T01:48:40.471Z,6.83
2022-07-30T01:51:08.922Z,5.90
2022-07-30T01:53:38.646Z,6.43
2022-07-30T01:56:10.637Z,6.10
2022-07-30T01:58:39.788Z,6.63
2022-07-30T02:01:07.182Z,6.80
2022-07-30T02:14:48.249Z,7.30
2022-07-30T02:17:22.195Z,7.70
2022-07-30T02:19:57.842Z,7.60
2022-07-30T02:22:28.912Z,6.70
2022-07-30T02:24:58.435Z,7.63
2022-07-30T02:27:29.112Z,7.00
2022-07-30T02:29:59.048Z,6.40
2022-07-30T02:32:27.199Z,6.70
2022-07-30T02:34:59.783Z,6.33
2022-07-30T02:37:43.002Z,7.10
2022-07-30T02:42:49.838Z,6.53
2022-07-30T02:45:20.561Z,5.93
2022-07-30T02:47:51.397Z,5.53
2022-07-30T02:50:19.673Z,5.20
2022-07-30T02:52:47.703Z,4.73
2022-07-30T02:55:16.802Z,5.30
2022-07-30T03:00:16.848Z,4.70
2022-07-30T03:05:16.625Z,4.47
2022-07-30T03:10:16.940Z,4.17
2022-07-30T03:12:46.274Z,3.73
2022-07-30T03:20:28.156Z,4.70
2022-07-30T03:22:57.128Z,4.93
2022-07-30T03:25:28.715Z,4.40
2022-07-30T03:27:57.777Z,4.10
2022-07-30T03:30:25.935Z,4.60
2022-07-30T03:35:26.429Z,4.67
2022-07-30T03:40:26.623Z,5.40
2022-07-30T03:45:25.316Z,7.30
2022-07-30T03:47:52.393Z,6.90
2022-07-30T03:50:19.010Z,7.07
2022-07-30T03:52:46.012Z,6.80
2022-07-30T04:00:17.100Z,6.40
2022-07-30T04:02:47.536Z,6.83
2022-07-30T04:05:15.751Z,7.07
2022-07-30T04:12:46.796Z,6.40
2022-07-30T04:16:38.157Z,6.53
2022-07-30T04:18:04.307Z,6.03
2022-07-30T04:20:40.074Z,6.47
2022-07-30T04:23:09.458Z,6.23
2022-07-30T04:25:36.356Z,6.13
2022-07-30T04:28:04.962Z,6.03
2022-07-30T04:30:35.807Z,5.73
2022-07-30T04:33:05.739Z,6.17
2022-07-30T04:35:50.905Z,6.13
2022-07-30T04:38:19.598Z,6.17
2022-07-30T04:40:46.656Z,5.50
2022-07-30T04:43:13.233Z,6.57
2022-07-30T04:58:27.240Z,5.43
2022-07-30T05:03:27.438Z,5.70
2022-07-30T05:05:57.607Z,5.93
2022-07-30T05:08:25.480Z,5.53
2022-07-30T05:18:26.796Z,6.23
2022-07-30T05:25:56.412Z,10.10
2022-07-30T05:30:55.443Z,9.30
2022-07-30T05:35:55.432Z,10.63
2022-07-30T05:40:53.574Z,9.93
2022-07-30T05:43:20.169Z,11.13
2022-07-30T05:45:46.760Z,10.23
2022-07-30T05:50:45.363Z,14.20
2022-07-30T06:00:46.643Z,23.10
2022-07-30T06:08:16.287Z,22.67
2022-07-30T06:10:42.877Z,21.80
2022-07-30T06:23:15.741Z,15.43
2022-07-30T06:25:42.348Z,13.50
2022-07-30T06:28:27.833Z,11.97
2022-07-30T06:30:55.573Z,11.30
2022-07-30T06:33:22.183Z,9.90
2022-07-30T06:38:20.563Z,8.97
2022-07-30T06:40:47.209Z,7.77
2022-07-30T06:43:13.909Z,6.43
2022-07-30T06:45:40.633Z,7.13
2022-07-30T06:48:07.228Z,7.20
2022-07-30T06:50:35.903Z,7.47
2022-07-30T06:55:34.118Z,6.67
2022-07-30T07:00:32.263Z,5.20
2022-07-30T07:08:02.091Z,5.57
2022-07-30T07:10:29.030Z,5.07
2022-07-30T07:12:56.014Z,5.20
2022-07-30T07:15:36.187Z,4.93
2022-07-30T07:18:04.150Z,5.83
2022-07-30T07:20:30.899Z,4.90
2022-07-30T07:22:57.641Z,5.73
2022-07-30T07:25:24.432Z,5.30
2022-07-30T07:28:12.522Z,4.80
2022-07-30T07:30:37.769Z,5.63
2022-07-30T07:33:04.483Z,5.27
2022-07-30T07:35:31.083Z,5.67
2022-07-30T07:37:57.707Z,5.43
2022-07-30T07:40:24.611Z,5.63
2022-07-30T07:42:51.294Z,5.13
2022-07-30T07:47:52.977Z,4.93
2022-07-30T07:50:21.182Z,4.50
2022-07-30T07:52:47.756Z,4.40
2022-07-30T07:55:14.385Z,4.57
2022-07-30T07:57:45.979Z,4.37
2022-07-30T08:00:15.262Z,4.07
2022-07-30T08:02:41.884Z,5.07
2022-07-30T08:07:43.109Z,3.80
2022-07-30T08:10:10.947Z,3.90
2022-07-30T08:12:37.740Z,3.93
2022-07-30T08:15:04.830Z,5.30
2022-07-30T08:17:31.436Z,4.40
2022-07-30T08:20:00.967Z,4.50
2022-07-30T08:22:28.050Z,4.20
2022-07-30T08:24:55.483Z,4.93
2022-07-30T08:27:22.157Z,4.50
2022-07-30T08:29:48.731Z,3.97
2022-07-30T08:32:15.290Z,4.23
2022-07-30T08:34:41.907Z,4.50
2022-07-30T08:37:08.822Z,3.60
2022-07-30T08:44:41.182Z,3.97
2022-07-30T08:49:42.419Z,3.70
2022-07-30T08:52:10.932Z,4.20
2022-07-30T08:57:10.848Z,5.90
2022-07-30T08:59:59.363Z,6.13
2022-07-30T09:02:27.350Z,5.27
2022-07-30T09:04:54.708Z,6.00
2022-07-30T09:07:21.379Z,6.73
2022-07-30T09:12:32.479Z,5.47
2022-07-30T09:18:01.052Z,5.67
2022-07-30T09:20:34.168Z,5.43
2022-07-30T09:23:04.087Z,5.83
2022-07-30T09:25:40.985Z,6.10
2022-07-30T09:30:51.386Z,5.23
2022-07-30T09:33:35.917Z,4.83
2022-07-30T09:36:04.381Z,4.40
2022-07-30T09:38:46.086Z,4.93
2022-07-30T09:41:36.206Z,4.37
2022-07-30T09:44:02.939Z,4.37
2022-07-30T09:49:22.317Z,4.40
2022-07-30T09:51:56.278Z,4.50
2022-07-30T09:54:43.039Z,4.10
2022-07-30T09:57:26.607Z,4.30
2022-07-30T09:59:56.816Z,4.10
2022-07-30T10:02:33.424Z,4.20
2022-07-30T10:05:15.539Z,3.87
2022-07-30T10:07:52.638Z,3.43
2022-07-30T10:10:25.386Z,3.50
2022-07-30T10:12:58.967Z,3.93
2022-07-30T10:15:29.616Z,4.17
2022-07-30T10:20:28.759Z,4.50
2022-07-30T10:22:55.624Z,4.90
2022-07-30T10:33:01.410Z,3.50
2022-07-30T10:35:34.574Z,4.00
2022-07-30T10:38:09.185Z,3.73
2022-07-30T10:41:02.287Z,3.17
2022-07-30T10:43:58.613Z,3.70
2022-07-30T10:46:54.661Z,3.60
2022-07-30T10:49:25.656Z,3.70
2022-07-30T10:51:54.947Z,3.33
2022-07-30T10:54:52.862Z,3.57
2022-07-30T10:57:26.608Z,3.43
2022-07-30T10:59:59.869Z,3.40
2022-07-30T11:02:30.643Z,3.60
2022-07-30T11:05:43.971Z,2.60
2022-07-30T11:08:35.950Z,3.33
2022-07-30T11:11:19.903Z,3.07
2022-07-30T11:13:53.501Z,3.00
2022-07-30T11:16:45.019Z,2.83
2022-07-30T11:19:56.466Z,3.10
2022-07-30T11:22:31.705Z,2.93
2022-07-30T11:24:59.724Z,2.80
2022-07-30T11:27:45.797Z,3.40
2022-07-30T11:30:23.587Z,3.27
2022-07-30T11:32:56.195Z,3.53
2022-07-30T11:35:34.438Z,3.00
2022-07-30T11:38:15.342Z,2.80
2022-07-30T11:40:45.768Z,3.17
2022-07-30T11:43:35.948Z,3.20
2022-07-30T11:46:29.023Z,3.33
2022-07-30T11:49:04.645Z,3.57
2022-07-30T11:54:13.973Z,2.90
2022-07-30T11:56:50.644Z,2.93
2022-07-30T11:59:17.268Z,2.70
2022-07-30T12:01:44.050Z,3.13
2022-07-30T12:04:10.737Z,2.83
2022-07-30T12:06:45.004Z,2.97
2022-07-30T12:09:12.333Z,2.63
2022-07-30T12:11:39.191Z,3.30
2022-07-30T12:14:06.544Z,3.37
2022-07-30T12:19:06.449Z,3.10
2022-07-30T12:21:34.308Z,3.07
2022-07-30T12:24:07.294Z,3.20
2022-07-30T12:26:34.705Z,3.00
2022-07-30T12:29:05.108Z,2.50
2022-07-30T12:34:05.126Z,2.50
2022-07-30T12:36:35.439Z,2.87
2022-07-30T12:47:25.035Z,3.10
2022-07-30T12:49:53.277Z,2.60
2022-07-30T12:52:30.911Z,2.80
2022-07-30T12:55:08.813Z,2.77
2022-07-30T13:03:24.099Z,2.70
2022-07-30T13:05:55.709Z,2.80
2022-07-30T13:08:51.182Z,2.77
2022-07-30T13:18:54.463Z,2.90
2022-07-30T13:26:24.381Z,2.23
2022-07-30T13:33:54.680Z,2.73
2022-07-30T13:36:21.302Z,2.23
2022-07-30T13:38:52.410Z,2.90
2022-07-30T13:41:19.666Z,2.63
2022-07-30T13:43:47.347Z,2.27
2022-07-30T13:46:13.957Z,3.03
2022-07-30T13:48:40.584Z,2.37
2022-07-30T13:51:07.224Z,2.27
2022-07-30T13:56:05.553Z,2.20
2022-07-30T13:58:39.227Z,2.30
2022-07-30T14:01:06.937Z,2.67
2022-07-30T14:03:34.087Z,2.30
2022-07-30T14:06:10.581Z,2.40
2022-07-30T14:08:38.550Z,2.30
2022-07-30T14:11:05.487Z,2.23
2022-07-30T14:16:04.103Z,2.53
2022-07-30T14:18:30.692Z,2.30
2022-07-30T14:20:57.331Z,2.27
2022-07-30T14:23:24.096Z,1.93
2022-07-30T14:25:50.918Z,1.73
2022-07-30T14:28:17.635Z,2.07
2022-07-30T14:30:44.259Z,2.00
2022-07-30T14:33:10.920Z,1.80
2022-07-30T14:35:37.791Z,2.10
2022-07-30T14:38:04.484Z,2.20
2022-07-30T14:40:31.114Z,2.07
2022-07-30T14:42:57.966Z,2.17
2022-07-30T14:45:25.506Z,1.90
2022-07-30T14:52:55.391Z,2.30
2022-07-30T14:55:22.004Z,1.83
2022-07-30T14:57:48.606Z,2.00
2022-07-30T15:00:15.581Z,2.23
2022-07-30T15:02:42.217Z,2.07
2022-07-30T15:12:44.115Z,2.03
2022-07-30T15:15:11.271Z,2.30
2022-07-30T15:17:40.065Z,1.90
2022-07-30T15:20:08.999Z,1.90
2022-07-30T15:22:36.336Z,1.87
2022-07-30T15:27:34.717Z,2.47
2022-07-30T15:35:04.924Z,1.97
2022-07-30T15:42:35.307Z,2.00
2022-07-30T15:45:19.607Z,1.87
2022-07-30T15:47:47.556Z,1.93
2022-07-30T15:50:15.283Z,1.97
2022-07-30T15:57:45.355Z,2.03
2022-07-30T16:02:44.088Z,1.87
2022-07-30T16:05:13.976Z,1.70
2022-07-30T16:07:41.432Z,2.43
2022-07-30T16:10:09.311Z,1.90
2022-07-30T16:12:35.986Z,2.07
2022-07-30T16:17:34.220Z,1.40
2022-07-30T16:20:04.198Z,1.97
2022-07-30T16:22:30.807Z,1.67
2022-07-30T16:24:57.398Z,1.83
2022-07-30T16:27:25.487Z,1.50
2022-07-30T16:34:55.374Z,1.50
2022-07-30T16:42:25.056Z,1.70
2022-07-30T16:49:54.720Z,1.50
2022-07-30T16:52:21.320Z,1.40
2022-07-30T16:57:24.802Z,1.63
2022-07-30T17:04:54.723Z,1.90
2022-07-30T17:07:21.295Z,1.63
2022-07-30T17:09:52.062Z,1.40
2022-07-30T17:12:20.029Z,1.50
2022-07-30T17:14:51.929Z,1.43
2022-07-30T17:17:18.575Z,1.30
2022-07-30T17:19:45.234Z,1.53
2022-07-30T17:24:43.920Z,1.70
2022-07-30T17:29:49.725Z,1.70
2022-07-30T17:32:16.651Z,1.70
2022-07-30T17:34:43.331Z,1.60
2022-07-30T17:37:10.131Z,1.57
2022-07-30T17:40:27.824Z,1.57
2022-07-30T17:42:25.359Z,1.47
2022-07-30T17:44:52.431Z,1.67
2022-07-30T17:47:19.070Z,1.57
2022-07-30T17:49:46.338Z,2.30
2022-07-30T17:52:13.088Z,2.10
2022-07-30T17:57:12.411Z,2.27
2022-07-30T18:07:13.678Z,2.07
2022-07-30T18:14:43.332Z,2.23
2022-07-30T18:22:14.830Z,1.83
2022-07-30T18:27:13.698Z,2.20
2022-07-30T18:29:40.469Z,2.10
2022-07-30T18:32:07.445Z,2.20
2022-07-30T18:34:34.643Z,2.10
2022-07-30T18:37:01.307Z,2.30
2022-07-30T18:39:28.134Z,1.80
2022-07-30T18:41:54.709Z,2.00
2022-07-30T18:44:22.028Z,2.10
2022-07-30T18:49:36.608Z,2.43
2022-07-30T18:52:04.853Z,2.57
2022-07-30T18:57:03.839Z,2.20
2022-07-30T19:02:04.526Z,2.43
2022-07-30T19:07:03.120Z,2.43
2022-07-30T19:09:29.792Z,1.87
2022-07-30T19:11:56.508Z,2.30
2022-07-30T19:14:23.078Z,2.53
2022-07-30T19:19:21.410Z,2.13
2022-07-30T19:39:23.796Z,2.27
2022-07-30T19:41:53.628Z,2.20
2022-07-30T19:44:20.239Z,2.30
2022-07-30T19:46:48.682Z,2.00
2022-07-30T19:49:15.543Z,2.60
2022-07-30T19:52:10.746Z,3.37
2022-07-30T19:54:28.796Z,2.80
2022-07-30T19:56:55.392Z,2.60
2022-07-30T19:59:37.052Z,3.30
2022-07-30T20:02:09.043Z,2.77
2022-07-30T20:04:36.590Z,2.83
2022-07-30T20:07:03.263Z,2.77
2022-07-30T20:09:30.987Z,3.03
2022-07-30T20:11:59.425Z,2.70
2022-07-30T20:14:29.255Z,2.77
2022-07-30T20:16:55.851Z,2.43
2022-07-30T20:19:24.951Z,2.00
2022-07-30T20:22:02.718Z,2.50
2022-07-30T20:24:29.513Z,2.33
2022-07-30T20:26:57.496Z,1.83
2022-07-30T20:29:24.190Z,1.97
2022-07-30T20:31:51.107Z,2.13
2022-07-30T20:34:20.581Z,2.07
2022-07-30T20:36:50.699Z,2.10
2022-07-30T20:39:18.612Z,1.60
2022-07-30T20:41:46.653Z,2.10
2022-07-30T20:44:23.664Z,1.70
2022-07-30T20:46:50.865Z,1.93
2022-07-30T20:49:23.454Z,2.10
2022-07-30T20:51:51.527Z,1.93
2022-07-30T20:54:18.176Z,2.70
2022-07-30T20:56:48.571Z,2.30
2022-07-30T20:59:15.688Z,2.40
2022-07-30T21:01:42.315Z,2.60
2022-07-30T21:04:09.629Z,2.70
2022-07-30T21:06:50.748Z,2.50
2022-07-30T21:09:17.334Z,2.30
2022-07-30T21:11:47.773Z,2.87
2022-07-30T21:14:18.199Z,2.17
2022-07-30T21:16:44.760Z,2.43
2022-07-30T21:19:14.334Z,2.43
2022-07-30T21:21:48.782Z,2.50
2022-07-30T21:24:18.603Z,2.47
2022-07-30T21:26:48.549Z,2.57
2022-07-30T21:29:16.390Z,2.93
2022-07-30T21:32:01.320Z,2.90
2022-07-30T21:34:36.006Z,2.70
2022-07-30T21:37:07.217Z,2.97
2022-07-30T21:39:39.618Z,3.23
2022-07-30T21:42:07.814Z,2.67
2022-07-30T21:44:34.484Z,3.23
2022-07-30T21:47:01.064Z,3.20
2022-07-30T21:49:27.976Z,3.57
2022-07-30T21:51:58.259Z,2.90
2022-07-30T21:54:29.366Z,3.50
2022-07-30T21:56:58.604Z,2.77
2022-07-30T22:02:18.755Z,3.17
2022-07-30T22:04:47.402Z,3.27
2022-07-30T22:07:17.257Z,3.00
2022-07-30T22:09:43.902Z,3.03
2022-07-30T22:12:12.823Z,3.20
2022-07-30T22:14:39.828Z,2.77
2022-07-30T22:17:22.389Z,2.97
2022-07-30T22:19:51.385Z,2.60
2022-07-30T22:22:26.838Z,3.13
2022-07-30T22:24:55.600Z,2.97
2022-07-30T22:27:24.919Z,3.13
2022-07-30T22:29:55.560Z,3.40
2022-07-30T22:32:23.636Z,4.00
2022-07-30T22:34:51.327Z,3.37
2022-07-30T22:37:21.234Z,3.13
2022-07-30T22:39:51.435Z,4.00
2022-07-30T22:42:24.043Z,3.40
2022-07-30T22:44:51.847Z,3.30
2022-07-30T22:47:21.854Z,2.73
2022-07-30T22:50:05.556Z,3.40
2022-07-30T22:55:29.625Z,3.17
2022-07-30T22:57:56.291Z,3.20
2022-07-30T23:00:27.386Z,3.30
2022-07-30T23:02:55.808Z,3.47
2022-07-30T23:05:22.944Z,3.03
2022-07-30T23:07:49.830Z,4.27
2022-07-30T23:10:18.644Z,3.07
2022-07-30T23:12:31.356Z,3.20
2022-07-30T23:12:34.529Z,3.27
2022-07-30T23:12:50.908Z,3.57
2022-07-30T23:15:18.599Z,3.03
2022-07-30T23:17:45.471Z,3.20
2022-07-30T23:20:14.808Z,3.50
2022-07-30T23:25:14.398Z,2.97
2022-07-30T23:32:45.557Z,3.60
2022-07-30T23:37:48.059Z,3.37
2022-07-30T23:48:02.542Z,2.73
2022-07-30T23:50:33.824Z,3.10
2022-07-30T23:53:01.362Z,3.40
2022-07-30T23:55:29.163Z,2.83
2022-07-30T23:57:56.351Z,3.30
